Time;durP1;ratioP1;P1;durP2;ratioP2;P2;SDS_P1;SDS_P2;PMS_P1;PMS_P2;Temp;Humidity;BMP_temperature;BMP_pressure;BME280_temperature;BME280_humidity;BME280_pressure;Samples;Min_cycle;Max_cycle;Signal;HPM_P1;HPM_P2
2022/12/14 00:02:16;;;;;;;39.03;15.45;;;;;;;-4.20;100.00;100381.66;5164372;28;20030;-74
2022/12/14 00:04:46;;;;;;;42.95;15.90;;;;;;;-4.16;100.00;100372.72;5165026;28;20034;-74
2022/12/14 00:07:16;;;;;;;41.15;15.23;;;;;;;-4.12;100.00;100361.09;5163871;28;20031;-75
2022/12/14 00:09:47;;;;;;;43.22;15.35;;;;;;;-4.08;100.00;100354.78;5164621;28;20030;-75
2022/12/14 00:12:17;;;;;;;39.45;15.32;;;;;;;-4.06;100.00;100349.47;5179090;28;20061;-74
2022/12/14 00:14:48;;;;;;;41.83;16.05;;;;;;;-4.06;100.00;100346.84;5164558;28;20022;-75
2022/12/14 00:17:18;;;;;;;42.33;15.73;;;;;;;-4.06;100.00;100337.22;5163781;28;20029;-73
2022/12/14 00:19:49;;;;;;;49.97;16.50;;;;;;;-4.06;100.00;100334.59;5164647;28;20088;-74
2022/12/14 00:22:19;;;;;;;39.13;14.82;;;;;;;-4.08;100.00;100332.97;5173737;28;20106;-72
2022/12/14 00:24:50;;;;;;;45.85;15.68;;;;;;;-4.08;100.00;100330.34;5163727;28;20857;-76
2022/12/14 00:27:20;;;;;;;41.30;15.07;;;;;;;-4.10;100.00;100330.44;5165576;28;20480;-74
2022/12/14 00:29:51;;;;;;;43.30;15.30;;;;;;;-4.12;100.00;100332.28;5164152;28;20026;-74
2022/12/14 00:32:21;;;;;;;40.30;15.18;;;;;;;-4.14;100.00;100320.22;5179404;28;20022;-74
2022/12/14 00:34:52;;;;;;;50.13;16.48;;;;;;;-4.15;100.00;100319.38;5163762;28;20033;-74
2022/12/14 00:37:22;;;;;;;37.72;14.35;;;;;;;-4.16;100.00;100322.94;5163015;28;20491;-74
2022/12/14 00:39:53;;;;;;;47.33;16.67;;;;;;;-4.18;100.00;100323.00;5163346;28;20033;-75
2022/12/14 00:42:23;;;;;;;36.75;14.43;;;;;;;-4.20;100.00;100319.63;5163662;28;20026;-75
2022/12/14 00:44:53;;;;;;;43.30;15.63;;;;;;;-4.21;100.00;100322.34;5163370;28;20019;-75
2022/12/14 00:47:24;;;;;;;42.67;15.55;;;;;;;-4.23;100.00;100326.81;5163244;28;20036;-75
2022/12/14 00:49:55;;;;;;;43.13;14.88;;;;;;;-4.26;100.00;100327.00;5162957;28;20077;-75
2022/12/14 00:52:25;;;;;;;43.83;15.40;;;;;;;-4.29;100.00;100324.53;5163603;28;20030;-75
2022/12/14 00:54:55;;;;;;;45.35;14.98;;;;;;;-4.31;100.00;100323.78;5163474;28;20022;-75
2022/12/14 00:57:29;;;;;;;38.42;14.80;;;;;;;-4.35;100.00;100319.63;5163557;28;20022;-75
2022/12/14 00:59:59;;;;;;;43.67;14.65;;;;;;;-4.41;100.00;100336.53;5163144;28;20377;-76
2022/12/14 01:02:30;;;;;;;46.88;14.23;;;;;;;-4.47;100.00;100327.25;5161614;28;20104;-75
2022/12/14 01:05:00;;;;;;;48.22;16.08;;;;;;;-4.52;100.00;100312.69;5163304;28;20026;-75
2022/12/14 01:07:30;;;;;;;49.88;15.57;;;;;;;-4.54;100.00;100311.94;5162697;28;20034;-74
2022/12/14 01:10:01;;;;;;;43.75;15.93;;;;;;;-4.56;100.00;100314.66;5163234;28;20027;-75
2022/12/14 01:12:31;;;;;;;43.75;15.65;;;;;;;-4.59;100.00;100317.41;5163265;28;20105;-74
2022/12/14 01:15:02;;;;;;;42.47;14.57;;;;;;;-4.60;100.00;100310.50;5162768;28;20053;-75
2022/12/14 01:17:33;;;;;;;46.25;16.45;;;;;;;-4.63;100.00;100315.03;5163400;28;20026;-73
2022/12/14 01:20:04;;;;;;;46.70;16.65;;;;;;;-4.64;100.00;100321.22;5162077;28;20054;-74
2022/12/14 01:22:34;;;;;;;41.10;15.30;;;;;;;-4.65;100.00;100323.00;5159383;28;20405;-72
2022/12/14 01:25:05;;;;;;;39.00;15.13;;;;;;;-4.67;100.00;100319.59;5161332;28;20067;-74
2022/12/14 01:27:35;;;;;;;43.20;16.20;;;;;;;-4.65;100.00;100325.59;5151597;28;20062;-74
2022/12/14 01:30:06;;;;;;;41.90;14.43;;;;;;;-4.63;100.00;100309.81;5162526;28;20383;-73
2022/12/14 01:32:37;;;;;;;41.47;14.43;;;;;;;-4.61;100.00;100308.81;5162859;28;20125;-73
2022/12/14 01:35:07;;;;;;;40.97;14.73;;;;;;;-4.57;100.00;100310.34;5162480;28;20073;-75
2022/12/14 01:37:38;;;;;;;45.58;16.13;;;;;;;-4.55;100.00;100312.88;5161807;28;20129;-74
2022/12/14 01:40:09;;;;;;;42.05;14.27;;;;;;;-4.53;100.00;100319.69;5162379;28;20026;-74
2022/12/14 01:42:39;;;;;;;35.47;14.18;;;;;;;-4.51;100.00;100328.34;5162766;28;20038;-75
2022/12/14 01:45:21;;;;;;;39.92;14.50;;;;;;;-4.51;100.00;100320.47;5162607;28;20018;-74
2022/12/14 01:48:00;;;;;;;39.78;14.95;;;;;;;-4.52;100.00;100312.69;5161820;28;20042;-75
2022/12/14 01:50:35;;;;;;;37.33;13.23;;;;;;;-4.50;100.00;100300.38;5162551;28;20480;-74
2022/12/14 01:53:14;;;;;;;40.25;14.88;;;;;;;-4.49;100.00;100295.03;5162521;28;20026;-75
2022/12/14 01:55:50;;;;;;;37.60;14.57;;;;;;;-4.48;100.00;100298.50;5162645;28;20034;-75
2022/12/14 01:58:24;;;;;;;41.65;13.23;;;;;;;-4.48;100.00;100291.50;5161675;28;20026;-75
2022/12/14 02:00:58;;;;;;;33.30;13.50;;;;;;;-4.47;100.00;100287.97;5162157;28;20022;-74
2022/12/14 02:03:35;;;;;;;35.78;14.07;;;;;;;-4.48;100.00;100296.72;5162745;28;20033;-74
2022/12/14 02:06:11;;;;;;;37.00;13.93;;;;;;;-4.52;100.00;100282.16;5162468;28;20035;-74
2022/12/14 02:08:45;;;;;;;36.47;13.07;;;;;;;-4.55;100.00;100281.47;5162124;28;20635;-74
2022/12/14 02:11:31;;;;;;;43.70;14.77;;;;;;;-4.57;100.00;100283.28;5162406;28;20041;-74
2022/12/14 02:14:03;;;;;;;34.78;13.93;;;;;;;-4.59;100.00;100277.31;5162492;28;20038;-75
2022/12/14 02:16:34;;;;;;;40.10;14.00;;;;;;;-4.61;100.00;100280.03;5162139;28;20358;-75
2022/12/14 02:19:24;;;;;;;36.40;13.80;;;;;;;-4.61;100.00;100274.78;5150603;28;20499;-76
2022/12/14 02:22:29;;;;;;;47.42;15.07;;;;;;;-4.59;100.00;100279.94;5161226;28;20113;-74
2022/12/14 02:25:09;;;;;;;;;;;;;;;-4.58;100.00;100279.84;5164327;28;20042;-75
2022/12/14 02:28:07;;;;;;;35.97;12.98;;;;;;;-4.57;100.00;100278.94;5165901;28;19914;-75
2022/12/14 02:30:43;;;;;;;34.58;13.18;;;;;;;-4.50;100.00;100285.50;5153905;28;20038;-74
2022/12/14 02:33:52;;;;;;;39.53;14.38;;;;;;;-4.48;100.00;100288.03;5166508;28;20030;-74
2022/12/14 02:36:34;;;;;;;38.15;14.60;;;;;;;-4.47;100.00;100281.84;5181025;28;20365;-74
2022/12/14 02:39:21;;;;;;;42.28;14.82;;;;;;;-4.46;100.00;100275.72;5167913;28;20042;-76
2022/12/14 02:42:11;;;;;;;44.38;15.18;;;;;;;-4.45;100.00;100275.63;5166098;28;20109;-74
2022/12/14 02:44:56;;;;;;;39.65;14.40;;;;;;;-4.44;100.00;100282.53;5166200;28;20384;-75
2022/12/14 02:47:38;;;;;;;39.17;14.02;;;;;;;-4.43;100.00;100262.44;5157376;28;20029;-75
2022/12/14 02:50:20;;;;;;;33.45;13.55;;;;;;;-4.42;100.00;100261.50;5166205;28;20041;-74
2022/12/14 02:53:08;;;;;;;39.15;14.25;;;;;;;-4.42;100.00;100266.75;5165768;28;20033;-75
2022/12/14 02:55:48;;;;;;;38.30;15.15;;;;;;;-4.42;100.00;100258.88;5166434;28;20646;-74
2022/12/14 02:58:41;;;;;;;41.50;14.55;;;;;;;-4.43;100.00;100258.03;5165846;28;20034;-74
2022/12/14 03:01:15;;;;;;;43.22;16.20;;;;;;;-4.43;100.00;100255.41;5165836;28;20056;-75
2022/12/14 03:03:45;;;;;;;48.42;15.05;;;;;;;-4.43;100.00;100251.97;5166137;28;20479;-75
2022/12/14 03:06:25;;;;;;;43.80;15.88;;;;;;;-4.43;100.00;100263.28;5165615;28;20035;-75
2022/12/14 03:09:01;;;;;;;45.55;16.70;;;;;;;-4.43;100.00;100252.81;5165499;28;20041;-73
2022/12/14 03:11:50;;;;;;;42.10;15.50;;;;;;;-4.44;100.00;100253.75;5165439;28;20041;-75
2022/12/14 03:14:39;;;;;;;40.67;14.55;;;;;;;-4.47;100.00;100232.13;5165682;28;20026;-74
2022/12/14 03:17:16;;;;;;;44.55;15.40;;;;;;;-4.50;100.00;100234.91;5160144;28;20332;-74
2022/12/14 03:19:56;;;;;;;46.00;15.57;;;;;;;-4.52;100.00;100235.00;5165172;28;20403;-74
2022/12/14 03:22:35;;;;;;;38.92;15.80;;;;;;;-4.54;100.00;100226.38;5165630;28;20113;-72
2022/12/14 03:25:14;;;;;;;35.97;13.77;;;;;;;-4.54;100.00;100223.75;5163939;28;20072;-73
2022/12/14 03:28:05;;;;;;;40.78;15.30;;;;;;;-4.52;100.00;100228.91;5155923;28;20030;-75
2022/12/14 03:30:41;;;;;;;43.67;15.07;;;;;;;-4.51;100.00;100217.53;5152596;28;20050;-75
2022/12/14 03:33:18;;;;;;;45.05;15.32;;;;;;;-4.49;100.00;100223.50;5165381;28;20044;-74
2022/12/14 03:35:54;;;;;;;40.92;14.30;;;;;;;-4.48;100.00;100225.19;5164988;28;20049;-75
2022/12/14 03:38:40;;;;;;;41.70;14.70;;;;;;;-4.46;100.00;100218.13;5164377;28;20439;-75
2022/12/14 03:41:37;;;;;;;43.40;15.43;;;;;;;-4.43;100.00;100212.69;5165071;28;20046;-75
2022/12/14 03:44:25;;;;;;;42.20;15.25;;;;;;;-4.41;100.00;100194.28;5165143;28;20026;-75
2022/12/14 03:47:28;;;;;;;39.78;15.25;;;;;;;-4.40;100.00;100196.81;5164066;28;20482;-75
2022/12/14 03:50:27;;;;;;;38.90;14.95;;;;;;;-4.38;100.00;100200.19;5174268;28;20049;-75
2022/12/14 03:53:22;;;;;;;34.25;13.88;;;;;;;-4.34;100.00;100203.47;5167996;28;20121;-75
2022/12/14 03:56:02;;;;;;;40.35;14.80;;;;;;;-4.33;100.00;100199.91;5164777;28;20038;-75
2022/12/14 03:59:02;;;;;;;36.75;13.30;;;;;;;-4.32;100.00;100198.97;5163254;28;20060;-75
2022/12/14 04:01:52;;;;;;;41.90;15.43;;;;;;;-4.29;100.00;100198.81;5164439;28;20041;-74
2022/12/14 04:04:34;;;;;;;45.00;14.65;;;;;;;-4.28;100.00;100197.88;5164543;28;20033;-76
2022/12/14 04:07:20;;;;;;;38.80;14.40;;;;;;;-4.27;100.00;100186.47;5163896;28;20084;-75
2022/12/14 04:09:55;;;;;;;38.88;14.27;;;;;;;-4.25;100.00;100184.63;5153933;28;20499;-75
2022/12/14 04:21:31;;;;;;;38.70;14.68;;;;;;;-4.21;100.00;100176.50;5149495;28;20015;-75
2022/12/14 04:27:04;;;;;;;38.33;14.32;;;;;;;-4.19;100.00;100166.75;5152157;28;20023;-75
2022/12/14 04:32:37;;;;;;;36.97;13.48;;;;;;;-4.15;100.00;100172.69;5158190;28;20049;-75
2022/12/14 04:35:17;;;;;;;36.85;14.13;;;;;;;-4.14;100.00;100171.75;5164127;28;20468;-73
2022/12/14 04:38:18;;;;;;;38.80;14.38;;;;;;;-4.13;100.00;100167.34;5163716;28;20065;-73
2022/12/14 04:40:52;;;;;;;39.30;14.90;;;;;;;-4.11;100.00;100168.13;5161918;28;20073;-73
2022/12/14 04:43:28;;;;;;;40.70;15.23;;;;;;;-4.09;100.00;100168.84;5163491;28;20026;-74
2022/12/14 04:46:17;;;;;;;38.08;13.93;;;;;;;-4.11;100.00;100171.56;5163934;28;20022;-74
2022/12/14 04:48:56;;;;;;;41.75;14.75;;;;;;;-4.09;100.00;100163.63;5162602;28;20034;-73
2022/12/14 04:51:37;;;;;;;33.92;13.82;;;;;;;-4.09;100.00;100167.06;5163513;28;20389;-74
2022/12/14 04:54:33;;;;;;;35.30;14.30;;;;;;;-4.08;100.00;100175.78;5164030;28;20465;-75
2022/12/14 04:57:07;;;;;;;;;;;;;;;-4.08;100.00;100174.00;5163862;28;20018;-73
2022/12/14 04:59:37;;;;;;;40.65;13.90;;;;;;;-4.08;100.00;100170.53;5163327;28;19914;-73
2022/12/14 05:02:36;;;;;;;44.58;15.18;;;;;;;-4.09;100.00;100164.44;5178519;28;20022;-75
2022/12/14 05:05:14;;;;;;;40.47;13.55;;;;;;;-4.08;100.00;100168.75;5163587;28;20108;-73
2022/12/14 05:08:05;;;;;;;42.53;15.20;;;;;;;-4.05;100.00;100168.59;5163022;28;20049;-74
2022/12/14 05:10:41;;;;;;;45.08;14.85;;;;;;;-4.02;100.00;100155.28;5163674;28;20124;-74
2022/12/14 05:13:34;;;;;;;39.08;14.65;;;;;;;-4.00;100.00;100150.81;5164179;28;20109;-74
2022/12/14 05:16:06;;;;;;;39.42;13.32;;;;;;;-3.99;100.00;100162.13;5172044;28;20018;-74
2022/12/14 05:18:37;;;;;;;42.35;13.93;;;;;;;-3.99;100.00;100173.47;5162500;28;20034;-74
2022/12/14 05:21:08;;;;;;;39.45;15.45;;;;;;;-3.99;100.00;100162.97;5157853;28;20539;-75
2022/12/14 05:23:38;;;;;;;39.17;14.95;;;;;;;-3.99;100.00;100160.34;5163210;28;20477;-75
2022/12/14 05:26:09;;;;;;;39.95;14.02;;;;;;;-3.99;100.00;100164.75;5153474;28;20106;-75
2022/12/14 05:28:39;;;;;;;37.78;14.20;;;;;;;-3.99;100.00;100168.22;5159487;28;20117;-74
2022/12/14 05:31:10;;;;;;;41.47;14.00;;;;;;;-4.00;100.00;100161.31;5162874;28;20026;-74
2022/12/14 05:33:40;;;;;;;36.05;15.05;;;;;;;-3.98;100.00;100161.19;5163268;28;20023;-75
2022/12/14 05:36:11;;;;;;;38.10;14.82;;;;;;;-3.99;100.00;100165.59;5163036;28;20026;-76
2022/12/14 05:38:41;;;;;;;44.50;15.98;;;;;;;-3.98;100.00;100159.41;5162626;28;20018;-74
2022/12/14 05:41:13;;;;;;;34.42;14.57;;;;;;;-3.98;100.00;100155.97;5163028;28;20327;-74
2022/12/14 05:43:43;;;;;;;35.60;14.13;;;;;;;-3.99;100.00;100162.97;5162833;28;20088;-74
2022/12/14 05:46:13;;;;;;;40.70;15.85;;;;;;;-3.98;100.00;100159.41;5162623;28;20030;-74
2022/12/14 05:48:44;;;;;;;37.33;14.60;;;;;;;-3.97;100.00;100162.88;5162385;28;20166;-75
2022/12/14 05:51:14;;;;;;;38.70;14.60;;;;;;;-3.97;100.00;100157.63;5163047;28;20069;-75
2022/12/14 05:53:45;;;;;;;35.78;14.23;;;;;;;-3.99;100.00;100157.75;5162907;28;20551;-74
2022/12/14 05:56:15;;;;;;;45.38;16.85;;;;;;;-3.99;100.00;100155.13;5162584;28;20030;-74
2022/12/14 05:58:49;;;;;;;41.25;15.35;;;;;;;-4.00;100.00;100145.56;5162565;28;20174;-74
2022/12/14 06:01:19;;;;;;;41.80;15.48;;;;;;;-4.00;100.00;100144.75;5162694;28;20373;-74
2022/12/14 06:03:53;;;;;;;42.78;15.48;;;;;;;-4.01;100.00;100140.44;5162847;28;20037;-75
2022/12/14 06:06:23;;;;;;;41.20;15.45;;;;;;;-4.01;100.00;100140.44;5162779;28;20034;-74
2022/12/14 06:08:54;;;;;;;37.58;14.30;;;;;;;-4.02;100.00;100144.81;5162869;28;20030;-74
2022/12/14 06:11:24;;;;;;;48.88;15.35;;;;;;;-4.03;100.00;100140.50;5162552;28;20504;-74
2022/12/14 06:13:55;;;;;;;39.38;14.40;;;;;;;-4.02;100.00;100133.50;5162673;28;20166;-74
2022/12/14 06:16:26;;;;;;;44.85;16.02;;;;;;;-4.01;100.00;100137.81;5162470;28;20022;-74
2022/12/14 06:18:59;;;;;;;45.35;15.55;;;;;;;-3.99;100.00;100141.19;5161745;28;20026;-74
2022/12/14 06:21:34;;;;;;;41.25;16.63;;;;;;;-3.99;100.00;100141.19;5156867;28;20021;-74
2022/12/14 06:24:05;;;;;;;46.05;16.60;;;;;;;-4.00;100.00;100150.81;5162493;28;20030;-73
2022/12/14 06:26:36;;;;;;;39.40;15.68;;;;;;;-3.96;100.00;100144.47;5150388;28;20034;-74
2022/12/14 06:29:12;;;;;;;38.75;16.30;;;;;;;-3.92;100.00;100145.09;5162220;28;20030;-72
2022/12/14 06:31:43;;;;;;;40.90;16.40;;;;;;;-3.93;100.00;100143.44;5162387;28;20102;-73
2022/12/14 06:34:14;;;;;;;41.50;15.98;;;;;;;-3.95;100.00;100138.28;5162623;28;20109;-73
2022/12/14 06:36:45;;;;;;;42.33;14.63;;;;;;;-3.96;100.00;100143.63;5162637;28;20014;-73
2022/12/14 06:39:16;;;;;;;43.55;15.88;;;;;;;-3.97;100.00;100137.50;5162514;28;20058;-73
2022/12/14 06:41:50;;;;;;;39.47;15.13;;;;;;;-3.97;100.00;100139.28;5162040;28;20061;-73
2022/12/14 06:44:21;;;;;;;42.70;15.40;;;;;;;-3.99;100.00;100155.13;5162437;28;20475;-74
2022/12/14 06:46:51;;;;;;;42.33;16.33;;;;;;;-4.01;100.00;100150.91;5157757;28;20041;-73
2022/12/14 06:49:22;;;;;;;37.42;14.52;;;;;;;-4.02;100.00;100146.59;5162180;28;20033;-73
2022/12/14 06:51:52;;;;;;;49.03;16.52;;;;;;;-4.03;100.00;100148.38;5162537;28;20455;-73
2022/12/14 06:54:22;;;;;;;41.25;16.20;;;;;;;-4.03;100.00;100151.00;5161984;28;20034;-73
2022/12/14 06:56:53;;;;;;;37.95;15.77;;;;;;;-4.02;100.00;100149.22;5162426;28;20077;-73
2022/12/14 06:59:23;;;;;;;47.03;15.45;;;;;;;-4.00;100.00;100149.97;5162266;28;20104;-73
2022/12/14 07:01:54;;;;;;;54.80;17.08;;;;;;;-3.99;100.00;100144.63;5162365;28;20019;-73
2022/12/14 07:04:24;;;;;;;37.78;15.73;;;;;;;-3.96;100.00;100143.63;5177508;28;20030;-73
2022/12/14 07:06:54;;;;;;;42.42;15.68;;;;;;;-3.99;100.00;100138.56;5161340;28;20023;-73
2022/12/14 07:09:25;;;;;;;47.58;17.65;;;;;;;-4.01;100.00;100140.44;5161922;28;20030;-73
2022/12/14 07:11:55;;;;;;;40.38;15.90;;;;;;;-4.03;100.00;100137.88;5163714;28;20022;-73
2022/12/14 07:14:26;;;;;;;43.25;15.77;;;;;;;-4.03;100.00;100139.66;5165865;28;20061;-73
2022/12/14 07:16:56;;;;;;;40.88;16.40;;;;;;;-4.05;100.00;100141.53;5165383;28;20030;-73
2022/12/14 07:19:27;;;;;;;45.38;17.10;;;;;;;-4.07;100.00;100140.78;5165653;28;20096;-73
2022/12/14 07:22:02;;;;;;;53.13;17.60;;;;;;;-4.07;100.00;100143.41;5160271;28;20037;-73
2022/12/14 07:24:34;;;;;;;48.70;16.70;;;;;;;-4.09;100.00;100145.28;5157329;28;20057;-73
2022/12/14 07:27:06;;;;;;;50.78;17.70;;;;;;;-4.12;100.00;100146.28;5157477;28;20033;-73
2022/12/14 07:29:36;;;;;;;47.85;17.75;;;;;;;-4.17;100.00;100143.97;5163318;28;20061;-73
2022/12/14 07:32:07;;;;;;;44.42;16.33;;;;;;;-4.20;100.00;100152.00;5179143;28;20469;-73
2022/12/14 07:34:37;;;;;;;42.67;16.45;;;;;;;-4.24;100.00;100150.47;5165872;28;20027;-73
2022/12/14 07:37:08;;;;;;;48.60;17.55;;;;;;;-4.27;100.00;100145.41;5164952;28;20018;-73
2022/12/14 07:39:40;;;;;;;43.55;16.52;;;;;;;-4.30;100.00;100145.59;5164404;28;20109;-73
2022/12/14 07:42:11;;;;;;;44.30;18.13;;;;;;;-4.31;100.00;100148.31;5162708;28;20109;-73
2022/12/14 07:44:42;;;;;;;47.33;17.50;;;;;;;-4.34;100.00;100146.69;5163438;28;20047;-73
2022/12/14 07:47:12;;;;;;;45.25;16.63;;;;;;;-4.35;100.00;100149.41;5163206;28;20030;-73
2022/12/14 07:49:43;;;;;;;42.70;16.85;;;;;;;-4.35;100.00;100141.56;5163671;28;20085;-73
2022/12/14 07:52:13;;;;;;;45.60;16.73;;;;;;;-4.36;100.00;100148.56;5163359;28;20034;-73
2022/12/14 07:54:44;;;;;;;47.95;16.65;;;;;;;-4.35;100.00;100142.41;5162575;28;20021;-73
2022/12/14 07:57:14;;;;;;;46.53;16.23;;;;;;;-4.35;100.00;100145.03;5162949;28;20022;-73
2022/12/14 07:59:45;;;;;;;47.97;19.45;;;;;;;-4.27;100.00;100160.28;5163117;28;20028;-73
2022/12/14 08:02:15;;;;;;;81.90;33.17;;;;;;;-4.20;100.00;100167.69;5162974;28;20050;-73
2022/12/14 08:04:46;;;;;;;42.72;17.63;;;;;;;-4.15;100.00;100166.59;5163064;28;20392;-73
2022/12/14 08:07:17;;;;;;;54.53;18.05;;;;;;;-4.19;100.00;100165.94;5162459;28;20472;-74
2022/12/14 08:09:48;;;;;;;45.90;16.23;;;;;;;-4.20;100.00;100172.94;5162988;28;20033;-73
2022/12/14 08:12:18;;;;;;;36.67;14.80;;;;;;;-4.18;100.00;100167.59;5162732;28;20105;-73
2022/12/14 08:14:49;;;;;;;40.45;15.65;;;;;;;-4.17;100.00;100169.28;5163156;28;20026;-73
2022/12/14 08:17:19;;;;;;;52.35;16.95;;;;;;;-4.17;100.00;100157.06;5162118;28;20058;-73
2022/12/14 08:19:49;;;;;;;41.95;15.82;;;;;;;-4.15;100.00;100154.34;5162410;28;20494;-73
2022/12/14 08:22:20;;;;;;;47.03;15.73;;;;;;;-4.13;100.00;100154.25;5161823;28;20025;-73
2022/12/14 08:24:50;;;;;;;48.72;16.65;;;;;;;-4.10;100.00;100160.16;5162688;28;20022;-73
2022/12/14 08:27:21;;;;;;;46.95;17.05;;;;;;;-4.05;100.00;100160.72;5164871;28;20034;-73
2022/12/14 08:29:51;;;;;;;44.92;15.70;;;;;;;-3.99;100.00;100160.34;5162421;28;20018;-73
2022/12/14 08:32:22;;;;;;;40.40;16.13;;;;;;;-3.94;100.00;100166.16;5161787;28;20045;-73
2022/12/14 08:34:53;;;;;;;48.85;17.73;;;;;;;-3.89;100.00;100165.06;5162465;28;20026;-73
2022/12/14 08:37:23;;;;;;;66.07;24.67;;;;;;;-3.81;100.00;100174.16;5177168;28;20022;-73
2022/12/14 08:39:54;;;;;;;48.10;18.00;;;;;;;-3.70;100.00;100166.50;5160886;28;20105;-74
2022/12/14 08:42:24;;;;;;;51.47;18.55;;;;;;;-3.43;100.00;100166.59;5162441;28;20026;-73
2022/12/14 08:44:56;;;;;;;43.60;17.08;;;;;;;-2.98;100.00;100171.69;5162316;28;20137;-73
2022/12/14 08:47:26;;;;;;;40.78;16.15;;;;;;;-2.63;100.00;100174.72;5176862;28;20506;-73
2022/12/14 08:49:58;;;;;;;40.80;16.30;;;;;;;-2.61;100.00;100164.97;5162205;28;20030;-73
2022/12/14 08:52:28;;;;;;;53.60;16.05;;;;;;;-2.53;100.00;100164.47;5162010;28;20030;-73
2022/12/14 08:54:59;;;;;;;41.65;15.70;;;;;;;-2.51;100.00;100170.44;5162180;28;20022;-74
2022/12/14 08:57:29;;;;;;;45.22;15.48;;;;;;;-2.57;100.00;100171.69;5161315;28;20105;-73
2022/12/14 09:00:00;;;;;;;38.10;16.05;;;;;;;-2.60;100.00;100179.78;5161921;28;20540;-74
2022/12/14 09:02:32;;;;;;;38.70;15.50;;;;;;;-2.58;100.00;100177.03;5161457;28;20022;-73
2022/12/14 09:05:03;;;;;;;37.47;15.27;;;;;;;-2.64;100.00;100179.13;5161960;28;20499;-73
2022/12/14 09:07:33;;;;;;;48.47;16.83;;;;;;;-2.66;100.00;100186.28;5161005;28;20030;-74
2022/12/14 09:10:06;;;;;;;41.92;16.23;;;;;;;-2.62;100.00;100190.34;5158412;28;20112;-73
2022/12/14 09:12:38;;;;;;;41.17;16.65;;;;;;;-2.58;100.00;100196.25;5159492;28;20040;-73
2022/12/14 09:15:09;;;;;;;39.80;16.10;;;;;;;-2.56;100.00;100194.41;5161402;28;20468;-74
2022/12/14 09:17:40;;;;;;;43.35;15.68;;;;;;;-2.43;100.00;100197.91;5161087;28;20663;-73
2022/12/14 09:20:12;;;;;;;44.33;16.48;;;;;;;-2.39;100.00;100203.81;5158959;28;20026;-73
2022/12/14 09:22:42;;;;;;;42.15;16.77;;;;;;;-2.23;100.00;100211.53;5157356;28;20027;-73
2022/12/14 09:25:13;;;;;;;45.47;16.17;;;;;;;-1.89;100.00;100218.03;5159366;28;20034;-73
2022/12/14 09:27:43;;;;;;;48.00;16.10;;;;;;;-1.62;100.00;100218.81;5150969;28;20030;-73
2022/12/14 09:30:14;;;;;;;42.85;16.15;;;;;;;-1.35;100.00;100221.38;5161004;28;20034;-73
2022/12/14 09:32:46;;;;;;;36.47;15.10;;;;;;;-1.12;100.00;100221.53;5160480;28;20324;-73
2022/12/14 09:35:16;;;;;;;46.35;16.98;;;;;;;-0.77;100.00;100220.84;5160218;28;20418;-73
2022/12/14 09:37:47;;;;;;;40.10;16.52;;;;;;;-0.47;100.00;100225.72;5160781;28;20105;-73
2022/12/14 09:40:21;;;;;;;45.53;18.08;;;;;;;0.07;100.00;100212.91;5147992;28;20026;-74
2022/12/14 09:43:02;;;;;;;36.25;16.05;;;;;;;0.83;100.00;100223.88;5160546;28;20029;-74
2022/12/14 09:45:44;;;;;;;38.47;16.42;;;;;;;1.49;100.00;100227.44;5160744;28;20141;-72
2022/12/14 09:48:19;;;;;;;36.33;15.20;;;;;;;1.74;100.00;100229.78;5160138;28;20030;-72
2022/12/14 09:50:52;;;;;;;;;;;;;;;1.82;100.00;100237.09;5161297;28;20027;-72
2022/12/14 09:53:24;;;;;;;34.15;15.38;;;;;;;1.92;100.00;100237.19;5160334;28;19913;-72
2022/12/14 09:55:56;;;;;;;35.97;15.68;;;;;;;2.00;100.00;100232.09;5160301;28;20385;-72
2022/12/14 09:58:29;;;;;;;36.50;16.98;;;;;;;1.96;100.00;100235.97;5160127;28;20022;-72
2022/12/14 10:01:21;;;;;;;40.60;16.55;;;;;;;1.87;100.00;100242.00;5160388;28;20022;-72
2022/12/14 10:04:22;;;;;;;39.50;17.17;;;;;;;1.60;100.00;100243.25;5160116;28;20030;-72
2022/12/14 10:06:55;;;;;;;42.80;18.38;;;;;;;1.51;100.00;100244.88;5160528;28;20388;-72
2022/12/14 10:09:38;;;;;;;37.47;16.13;;;;;;;1.47;100.00;100250.53;5160179;28;20057;-72
2022/12/14 10:12:11;;;;;;;43.85;18.15;;;;;;;1.26;100.00;100245.97;5159945;28;20395;-72
2022/12/14 10:14:57;;;;;;;33.10;16.08;;;;;;;0.92;100.00;100250.41;5160455;28;20026;-72
2022/12/14 10:17:38;;;;;;;40.05;16.92;;;;;;;0.82;100.00;100241.53;5160174;28;20032;-72
2022/12/14 10:20:30;;;;;;;43.22;16.02;;;;;;;0.72;100.00;100241.38;5158816;28;20042;-71
2022/12/14 10:23:02;;;;;;;39.05;17.25;;;;;;;0.73;100.00;100235.16;5159040;28;20502;-72
2022/12/14 10:25:36;;;;;;;41.00;18.02;;;;;;;0.65;100.00;100237.56;5155477;28;20023;-72
2022/12/14 10:28:17;;;;;;;42.33;16.75;;;;;;;0.72;100.00;100235.28;5152989;28;20027;-72
2022/12/14 10:30:51;;;;;;;36.85;16.25;;;;;;;0.66;100.00;100235.75;5160178;28;20119;-72
2022/12/14 10:33:28;;;;;;;40.55;16.08;;;;;;;0.63;100.00;100233.34;5160383;28;20113;-72
2022/12/14 10:36:13;;;;;;;39.30;17.58;;;;;;;0.48;100.00;100230.06;5160480;28;20459;-74
2022/12/14 10:38:56;;;;;;;35.65;16.50;;;;;;;0.30;100.00;100231.44;5160179;28;20089;-74
2022/12/14 10:41:40;;;;;;;35.25;15.52;;;;;;;0.28;100.00;100233.38;5159744;28;20146;-74
2022/12/14 10:44:56;;;;;;;35.70;16.55;;;;;;;0.22;100.00;100238.16;5160481;28;20018;-74
2022/12/14 10:47:38;;;;;;;48.53;17.63;;;;;;;0.13;100.00;100230.09;5155251;28;20387;-74
2022/12/14 10:50:28;;;;;;;36.70;16.55;;;;;;;-0.01;100.00;100228.47;5164089;28;20088;-74
2022/12/14 10:53:02;;;;;;;35.90;15.20;;;;;;;-0.05;100.00;100214.69;5164037;28;20026;-74
2022/12/14 10:55:38;;;;;;;40.05;18.00;;;;;;;-0.09;100.00;100215.03;5163988;28;20080;-74
2022/12/14 10:58:12;;;;;;;38.30;16.48;;;;;;;-0.01;100.00;100210.00;5161842;28;20633;-74
2022/12/14 11:00:42;;;;;;;39.17;16.83;;;;;;;0.02;100.00;100212.44;5163353;28;20033;-75
2022/12/14 11:03:14;;;;;;;38.17;17.35;;;;;;;0.08;100.00;100211.13;5164139;28;20022;-75
2022/12/14 11:06:06;;;;;;;41.53;16.13;;;;;;;0.07;100.00;100215.56;5163648;28;20023;-74
2022/12/14 11:08:40;;;;;;;39.30;17.13;;;;;;;0.27;100.00;100215.88;5163194;28;20362;-74
2022/12/14 11:11:16;;;;;;;37.17;15.63;;;;;;;0.46;100.00;100217.00;5162857;28;20303;-74
2022/12/14 11:14:06;;;;;;;38.63;15.65;;;;;;;0.33;100.00;100229.44;5163627;28;20027;-74
2022/12/14 11:16:39;;;;;;;33.15;13.57;;;;;;;0.25;100.00;100229.16;5162107;28;20512;-75
2022/12/14 11:19:22;;;;;;;35.63;15.38;;;;;;;0.18;100.00;100227.94;5163254;28;20031;-75
2022/12/14 11:22:13;;;;;;;34.03;16.02;;;;;;;0.15;100.00;100229.03;5157606;28;20353;-75
2022/12/14 11:24:47;;;;;;;70.13;30.45;;;;;;;0.08;100.00;100230.41;5163598;28;20484;-74
2022/12/14 11:27:20;;;;;;;42.78;17.05;;;;;;;0.08;100.00;100234.88;5150278;28;20531;-74
2022/12/14 11:29:50;;;;;;;31.95;13.65;;;;;;;0.06;100.00;100236.78;5163345;28;20492;-75
2022/12/14 11:32:23;;;;;;;34.28;14.40;;;;;;;0.10;100.00;100231.16;5163178;28;20053;-74
2022/12/14 11:34:57;;;;;;;36.05;15.10;;;;;;;0.31;100.00;100231.34;5163400;28;20030;-75
2022/12/14 11:37:30;;;;;;;35.45;14.25;;;;;;;0.20;100.00;100231.28;5162931;28;20045;-75
2022/12/14 11:40:04;;;;;;;39.33;14.90;;;;;;;0.20;100.00;100236.56;5177898;28;20088;-75
2022/12/14 11:42:35;;;;;;;41.05;16.15;;;;;;;0.17;100.00;100239.47;5162775;28;20109;-75
2022/12/14 11:45:29;;;;;;;39.80;16.67;;;;;;;0.05;100.00;100235.94;5161347;28;20027;-75
2022/12/14 11:48:19;;;;;;;39.28;15.80;;;;;;;0.05;100.00;100243.84;5162722;28;20030;-75
2022/12/14 11:51:07;;;;;;;35.97;15.00;;;;;;;0.07;100.00;100244.56;5157356;28;20392;-75
2022/12/14 11:53:39;;;;;;;35.72;15.00;;;;;;;0.16;100.00;100233.34;5163157;28;20100;-75
2022/12/14 11:56:16;;;;;;;38.15;15.82;;;;;;;0.12;100.00;100242.44;5162688;28;20076;-75
2022/12/14 11:58:52;;;;;;;41.47;16.48;;;;;;;0.19;100.00;100242.81;5160894;28;20246;-74